Time;durP1;ratioP1;P1;durP2;ratioP2;P2;SDS_P1;SDS_P2;PMS_P1;PMS_P2;Temp;Humidity;BMP_temperature;BMP_pressure;BME280_temperature;BME280_humidity;BME280_pressure;Samples;Min_cycle;Max_cycle;Signal;HPM_P1;HPM_P2
2021/04/19 00:02:03;;;;;;;32.05;22.77;;;;;;;6.36;84.94;100830.28;1744059;82;20961;-42
2021/04/19 00:04:31;;;;;;;35.10;22.00;;;;;;;6.35;85.13;100828.97;1744017;82;21198;-42
2021/04/19 00:06:59;;;;;;;34.00;21.52;;;;;;;6.32;85.24;100825.53;1743886;82;21058;-40
2021/04/19 00:09:27;;;;;;;33.75;21.27;;;;;;;6.32;85.29;100829.84;1744018;82;21003;-41
2021/04/19 00:11:55;;;;;;;33.80;21.35;;;;;;;6.31;85.48;100821.24;1744000;80;20971;-41
2021/04/19 00:14:22;;;;;;;39.15;23.30;;;;;;;6.30;85.55;100826.36;1744061;82;20995;-42
2021/04/19 00:16:50;;;;;;;33.02;22.60;;;;;;;6.29;85.59;100816.52;1743998;82;21356;-41
2021/04/19 00:19:18;;;;;;;34.65;22.62;;;;;;;6.28;85.62;100812.23;1743987;82;21003;-41
2021/04/19 00:21:46;;;;;;;35.25;22.22;;;;;;;6.29;85.74;100811.79;1743931;82;21031;-40
2021/04/19 00:24:15;;;;;;;42.13;22.20;;;;;;;6.30;85.79;100816.95;1744031;80;20912;-41
2021/04/19 00:26:42;;;;;;;45.80;24.37;;;;;;;6.29;85.79;100819.09;1744010;82;21019;-41
2021/04/19 00:29:10;;;;;;;34.53;21.40;;;;;;;6.28;85.83;100816.50;1744022;82;21271;-42
2021/04/19 00:31:39;;;;;;;29.55;19.70;;;;;;;6.28;85.84;100816.50;1743986;82;21062;-42
2021/04/19 00:34:08;;;;;;;26.90;19.25;;;;;;;6.25;85.85;100822.50;1744069;82;21031;-42
2021/04/19 00:36:37;;;;;;;30.88;19.35;;;;;;;6.24;85.87;100818.62;1743924;82;21010;-41
2021/04/19 00:39:05;;;;;;;31.97;20.40;;;;;;;6.17;85.96;100817.73;1743950;82;21018;-42
2021/04/19 00:41:33;;;;;;;30.48;19.85;;;;;;;6.10;86.01;100805.70;1744023;82;22378;-41
2021/04/19 00:44:01;;;;;;;29.92;19.00;;;;;;;6.08;86.08;100803.55;1743958;82;20991;-41
2021/04/19 00:46:28;;;;;;;29.60;19.23;;;;;;;6.03;86.24;100815.95;1722935;82;21611;-42
2021/04/19 00:48:56;;;;;;;30.70;19.98;;;;;;;5.98;86.32;100811.19;1743812;82;21670;-42
2021/04/19 00:51:23;;;;;;;28.52;19.70;;;;;;;5.94;86.50;100809.45;1744064;80;21141;-43
2021/04/19 00:53:52;;;;;;;26.65;18.23;;;;;;;5.92;86.63;100808.99;1744045;82;21199;-42
2021/04/19 00:56:21;;;;;;;27.93;18.82;;;;;;;5.90;86.74;100811.54;1743850;82;21027;-41
2021/04/19 00:58:50;;;;;;;28.60;18.55;;;;;;;5.89;86.88;100816.25;1743970;82;20947;-41
2021/04/19 01:01:18;;;;;;;32.88;20.30;;;;;;;5.85;87.02;100806.80;1743992;82;21074;-42
2021/04/19 01:03:46;;;;;;;25.15;17.87;;;;;;;5.83;87.04;100811.08;1744011;82;20960;-40
2021/04/19 01:06:15;;;;;;;25.75;18.32;;;;;;;5.83;87.21;100805.52;1744005;82;22264;-41
2021/04/19 01:08:43;;;;;;;28.40;19.25;;;;;;;5.81;87.29;100806.34;1743858;82;20925;-42
2021/04/19 01:11:11;;;;;;;26.07;18.05;;;;;;;5.81;87.41;100810.20;1743983;82;21078;-41
2021/04/19 01:13:38;;;;;;;25.68;18.30;;;;;;;5.78;87.51;100815.33;1743946;82;21003;-42
2021/04/19 01:16:06;;;;;;;28.10;17.55;;;;;;;5.75;87.63;100805.47;1744009;82;20971;-41
2021/04/19 01:18:36;;;;;;;21.77;16.50;;;;;;;5.75;87.67;100809.73;1743909;82;21426;-41
2021/04/19 01:21:05;;;;;;;25.17;17.92;;;;;;;5.73;87.78;100808.86;1743897;82;20992;-41
2021/04/19 01:23:33;;;;;;;26.20;17.90;;;;;;;5.71;87.75;100806.30;1744064;82;21594;-41
2021/04/19 01:26:01;;;;;;;25.75;17.30;;;;;;;5.71;87.75;100806.30;1743857;82;21587;-41
2021/04/19 01:28:30;;;;;;;24.90;17.40;;;;;;;5.70;88.03;100806.27;1740650;82;21070;-41
2021/04/19 01:30:58;;;;;;;27.27;16.62;;;;;;;5.69;88.06;100803.27;1743949;82;21208;-41
2021/04/19 01:33:27;;;;;;;22.93;16.32;;;;;;;5.68;88.14;100805.41;1743886;82;21039;-41
2021/04/19 01:35:55;;;;;;;23.77;17.30;;;;;;;5.64;88.08;100794.23;1743962;80;20967;-41
2021/04/19 01:38:24;;;;;;;26.10;18.27;;;;;;;5.64;88.08;100794.23;1743962;82;20912;-41
2021/04/19 01:43:31;;;;;;;24.20;16.32;;;;;;;5.65;88.38;100802.38;1847544;76;22741;-41
2021/04/19 01:46:03;;;;;;;22.40;16.70;;;;;;;5.60;88.43;100809.19;1810587;79;21006;-41
2021/04/19 01:48:31;;;;;;;21.07;16.60;;;;;;;5.57;88.50;100802.75;1785548;80;21301;-42
2021/04/19 01:50:59;;;;;;;26.60;16.77;;;;;;;5.56;88.58;100803.59;1785573;80;20982;-41
2021/04/19 01:53:28;;;;;;;21.70;16.00;;;;;;;5.56;88.64;100798.46;1785576;80;20982;-42
2021/04/19 01:55:55;;;;;;;34.75;18.25;;;;;;;5.56;88.70;100795.89;1785511;80;21038;-41
2021/04/19 01:58:25;;;;;;;28.27;17.25;;;;;;;5.54;88.73;100788.61;1785674;80;21009;-41
2021/04/19 02:00:57;;;;;;;22.48;17.23;;;;;;;5.55;88.81;100796.30;1755225;80;21574;-42
2021/04/19 02:03:38;;;;;;;21.12;16.10;;;;;;;5.54;88.93;100797.16;1785462;80;20994;-43
2021/04/19 02:06:21;;;;;;;21.80;16.02;;;;;;;5.54;88.93;100797.16;1785523;80;20903;-41
2021/04/19 02:09:19;;;;;;;18.95;15.38;;;;;;;5.55;89.01;100795.02;1785523;80;20982;-41
2021/04/19 02:12:08;;;;;;;19.85;14.70;;;;;;;5.50;89.18;100796.70;1785541;79;21002;-40
2021/04/19 02:14:51;;;;;;;22.13;16.05;;;;;;;5.50;89.18;100796.70;1785549;80;21364;-43
2021/04/19 02:17:59;;;;;;;20.27;15.70;;;;;;;5.48;89.32;100801.41;1785515;80;21520;-41
2021/04/19 02:20:47;;;;;;;24.95;16.00;;;;;;;5.45;89.34;100803.51;1785499;80;21081;-42
2021/04/19 02:23:34;;;;;;;20.32;15.93;;;;;;;5.41;89.44;100802.61;1785470;80;21613;-43
2021/04/19 02:26:24;;;;;;;22.00;16.02;;;;;;;5.37;89.92;100796.17;1785472;79;21160;-41
2021/04/19 02:29:04;;;;;;;19.67;15.20;;;;;;;5.36;89.79;100799.59;1785636;80;21351;-42
2021/04/19 02:31:39;;;;;;;21.82;16.30;;;;;;;5.36;90.04;100803.45;1776664;80;21033;-42
2021/04/19 02:34:10;;;;;;;20.48;16.00;;;;;;;5.36;90.04;100803.45;1785759;80;21023;-41
2021/04/19 02:36:48;;;;;;;22.15;16.57;;;;;;;5.37;89.93;100803.88;1785461;80;20931;-42
2021/04/19 02:39:17;;;;;;;22.85;16.40;;;;;;;5.39;89.97;100804.31;1785552;80;21021;-42
2021/04/19 02:41:51;;;;;;;21.07;15.95;;;;;;;5.42;89.94;100799.20;1785405;79;22363;-42
2021/04/19 02:44:20;;;;;;;21.20;15.28;;;;;;;5.43;89.98;100799.66;1785448;80;20958;-42
2021/04/19 02:46:52;;;;;;;21.85;15.43;;;;;;;5.44;90.05;100797.94;1781190;79;21065;-42
2021/04/19 02:49:31;;;;;;;25.43;16.37;;;;;;;5.45;90.13;100804.38;1785521;80;21014;-41
2021/04/19 02:52:01;;;;;;;21.23;15.48;;;;;;;5.45;90.10;100799.25;1785532;80;20974;-41
2021/04/19 02:54:30;;;;;;;18.77;13.68;;;;;;;5.45;90.17;100794.12;1785093;80;21330;-42
2021/04/19 02:56:57;;;;;;;17.62;13.98;;;;;;;5.50;90.14;100801.83;1784911;80;21073;-41
2021/04/19 02:59:27;;;;;;;18.35;14.35;;;;;;;5.44;90.18;100796.66;1784945;80;21001;-41
2021/04/19 03:02:04;;;;;;;21.55;15.53;;;;;;;5.44;90.18;100796.66;1784845;80;20988;-41
2021/04/19 03:04:37;;;;;;;22.93;16.25;;;;;;;5.42;90.21;100798.35;1784972;80;21053;-41
2021/04/19 03:07:13;;;;;;;19.55;14.45;;;;;;;5.41;90.23;100804.34;1784978;80;21384;-41
2021/04/19 03:09:47;;;;;;;18.12;13.53;;;;;;;5.40;90.30;100800.89;1784910;80;21338;-41
2021/04/19 03:12:15;;;;;;;17.57;13.45;;;;;;;5.41;90.32;100804.34;1754384;80;20990;-41
2021/04/19 03:14:50;;;;;;;20.77;14.58;;;;;;;5.43;90.31;100802.23;1784501;80;21022;-41
2021/04/19 03:17:21;;;;;;;15.95;12.88;;;;;;;5.41;90.26;100811.60;1784942;80;20946;-40
2021/04/19 03:20:19;;;;;;;16.90;13.18;;;;;;;5.39;90.27;100805.59;1784999;80;21251;-41
2021/04/19 03:23:03;;;;;;;16.02;12.95;;;;;;;5.42;90.38;100809.47;1783598;80;21069;-42
2021/04/19 03:25:33;;;;;;;23.98;14.53;;;;;;;5.42;90.29;100806.06;1783879;80;21034;-42
2021/04/19 03:28:02;;;;;;;18.05;13.30;;;;;;;5.42;90.29;100803.48;1784911;80;20943;-42
2021/04/19 03:30:31;;;;;;;14.53;11.93;;;;;;;5.46;90.27;100807.39;1784912;80;21084;-42
2021/04/19 03:33:00;;;;;;;19.27;12.68;;;;;;;5.48;90.19;100804.81;1784344;80;21364;-42
2021/04/19 03:35:35;;;;;;;18.42;12.85;;;;;;;5.57;90.00;100813.02;1784792;79;21002;-41
2021/04/19 03:38:04;;;;;;;18.82;14.18;;;;;;;5.57;90.00;100813.02;1784768;80;21014;-42
2021/04/19 03:40:33;;;;;;;14.95;12.43;;;;;;;5.62;90.08;100808.77;1784870;80;21010;-41
2021/04/19 03:43:09;;;;;;;14.20;12.53;;;;;;;5.66;90.03;100804.09;1791332;79;21029;-40
2021/04/19 03:45:39;;;;;;;17.82;13.20;;;;;;;5.69;89.87;100800.70;1796848;78;21361;-41
2021/04/19 03:48:25;;;;;;;16.37;12.70;;;;;;;5.75;89.75;100800.33;1796957;79;20973;-41
2021/04/19 03:51:07;;;;;;;31.62;20.65;;;;;;;5.81;89.69;100805.06;1796330;79;21021;-42
2021/04/19 03:53:38;;;;;;;38.53;25.30;;;;;;;5.83;89.53;100812.36;1796411;79;21009;-42
2021/04/19 03:56:06;;;;;;;27.80;17.75;;;;;;;5.85;89.53;100808.09;1796918;79;20998;-42
2021/04/19 03:58:35;;;;;;;27.32;19.30;;;;;;;5.89;89.33;100811.11;1795685;79;21448;-42
2021/04/19 04:01:06;;;;;;;18.27;13.53;;;;;;;5.85;89.12;100817.08;1796845;79;20989;-42
2021/04/19 04:03:36;;;;;;;19.30;15.00;;;;;;;5.89;89.09;100822.67;1795320;79;20989;-42
2021/04/19 04:06:22;;;;;;;17.42;13.95;;;;;;;5.87;88.95;100825.24;1774573;79;20981;-42
2021/04/19 04:08:49;;;;;;;16.82;11.68;;;;;;;5.85;88.97;100820.94;1797003;78;20927;-41
2021/04/19 04:11:18;;;;;;;27.17;16.67;;;;;;;5.84;88.90;100823.06;1770625;79;21371;-42
2021/04/19 04:13:47;;;;;;;23.30;15.00;;;;;;;5.79;88.82;100827.32;1796335;79;21064;-41
2021/04/19 04:16:15;;;;;;;58.87;27.90;;;;;;;5.76;88.76;100826.86;1796807;78;21024;-41
2021/04/19 04:18:53;;;;;;;34.55;20.08;;;;;;;5.73;88.67;100831.98;1791314;79;21594;-41
2021/04/19 04:21:21;;;;;;;68.75;30.05;;;;;;;5.66;88.80;100829.78;1796895;78;20943;-42
2021/04/19 04:23:50;;;;;;;36.53;19.82;;;;;;;5.63;89.13;100829.76;1796806;79;21346;-41
2021/04/19 04:26:18;;;;;;;48.20;21.07;;;;;;;5.69;89.31;100837.95;1796865;79;21052;-41
2021/04/19 04:28:47;;;;;;;21.73;15.20;;;;;;;5.84;89.25;100841.05;1770790;79;21026;-41
2021/04/19 04:31:17;;;;;;;54.50;26.37;;;;;;;5.84;89.25;100841.05;1796337;79;20986;-41
2021/04/19 04:33:49;;;;;;;66.92;30.23;;;;;;;5.86;89.09;100847.06;1796090;79;21002;-42
2021/04/19 04:36:19;;;;;;;69.47;31.75;;;;;;;5.79;88.83;100837.59;1796825;78;21422;-41
2021/04/19 04:38:48;;;;;;;52.88;26.23;;;;;;;5.79;88.83;100837.59;1796367;78;20938;-42
2021/04/19 04:41:17;;;;;;;41.98;21.82;;;;;;;5.72;88.59;100834.98;1796342;79;21001;-42
2021/04/19 04:43:45;;;;;;;34.33;21.27;;;;;;;5.70;88.97;100834.53;1796692;79;21033;-42
2021/04/19 04:46:33;;;;;;;25.65;18.07;;;;;;;5.72;88.95;100838.84;1796822;78;21144;-42
2021/04/19 04:49:27;;;;;;;36.65;20.00;;;;;;;5.65;88.77;100829.34;1796223;79;21191;-42
2021/04/19 04:51:56;;;;;;;17.95;13.62;;;;;;;5.65;88.77;100829.34;1796770;79;20942;-42
2021/04/19 04:54:24;;;;;;;16.82;12.28;;;;;;;5.81;88.73;100832.92;1796870;79;20981;-41
2021/04/19 04:56:55;;;;;;;12.75;10.80;;;;;;;5.81;88.73;100832.92;1796869;79;21068;-43
2021/04/19 04:59:23;;;;;;;30.15;17.80;;;;;;;5.89;88.48;100831.66;1796877;79;20994;-41
2021/04/19 05:01:51;;;;;;;17.70;12.80;;;;;;;5.94;88.16;100836.44;1796847;79;21261;-41
2021/04/19 05:04:19;;;;;;;19.12;14.05;;;;;;;6.00;87.88;100835.18;1770335;79;21018;-41
2021/04/19 05:06:48;;;;;;;27.07;17.77;;;;;;;6.04;87.77;100833.09;1796767;79;20993;-41
2021/04/19 05:09:16;;;;;;;18.23;13.65;;;;;;;6.12;87.37;100834.84;1796801;79;21001;-41
2021/04/19 05:11:44;;;;;;;16.23;12.85;;;;;;;6.20;87.11;100832.33;1796923;79;21069;-40
2021/04/19 05:14:11;;;;;;;22.82;15.25;;;;;;;6.30;86.88;100836.24;1796783;78;21202;-43
2021/04/19 05:16:39;;;;;;;21.37;16.00;;;;;;;6.35;86.57;100836.27;1796832;79;20989;-42
2021/04/19 05:19:07;;;;;;;40.67;23.45;;;;;;;6.38;86.12;100837.98;1796882;79;21002;-42
2021/04/19 05:21:35;;;;;;;23.40;15.95;;;;;;;6.46;86.20;100835.89;1796773;79;21033;-41
2021/04/19 05:24:05;;;;;;;21.73;16.55;;;;;;;6.54;85.70;100841.07;1796892;79;21002;-41
2021/04/19 05:26:32;;;;;;;25.92;20.02;;;;;;;6.59;85.29;100841.10;1796839;79;21436;-41
2021/04/19 05:29:00;;;;;;;17.57;14.38;;;;;;;6.59;84.77;100834.23;1796808;79;20954;-42
2021/04/19 05:31:28;;;;;;;17.23;14.60;;;;;;;6.60;84.38;100836.39;1796832;79;20966;-40
2021/04/19 05:33:56;;;;;;;17.48;14.45;;;;;;;6.63;84.12;100831.25;1796811;79;21026;-42
2021/04/19 05:36:28;;;;;;;17.17;14.20;;;;;;;6.67;83.92;100830.41;1796836;79;21077;-42
2021/04/19 05:38:55;;;;;;;18.15;14.98;;;;;;;6.72;83.71;100831.72;1770591;79;21438;-42
2021/04/19 05:41:23;;;;;;;24.77;16.45;;;;;;;6.80;83.49;100827.86;1796775;79;21049;-41
2021/04/19 05:43:51;;;;;;;17.12;14.03;;;;;;;6.84;82.97;100832.19;1766786;80;20934;-41
2021/04/19 05:46:19;;;;;;;17.23;13.68;;;;;;;6.82;82.77;100827.02;1790874;78;21001;-41
2021/04/19 05:48:47;;;;;;;16.77;13.58;;;;;;;6.87;82.24;100828.33;1790961;79;20919;-42
2021/04/19 05:51:28;;;;;;;14.65;12.60;;;;;;;6.82;81.99;100821.88;1790974;80;21195;-43
2021/04/19 05:53:56;;;;;;;18.37;13.53;;;;;;;6.81;82.27;100821.45;1790862;80;20911;-42
2021/04/19 05:56:32;;;;;;;18.15;13.95;;;;;;;6.87;82.04;100823.19;1790987;80;21581;-41
2021/04/19 05:59:14;;;;;;;21.17;15.35;;;;;;;6.97;82.11;100827.48;1790525;80;22344;-42
2021/04/19 06:01:44;;;;;;;21.97;15.98;;;;;;;7.08;82.03;100826.23;1790999;80;21614;-42
2021/04/19 06:05:57;;;;;;;21.02;15.10;;;;;;;7.26;81.34;100818.95;1776751;79;22555;-43
2021/04/19 06:08:48;;;;;;;25.27;16.10;;;;;;;7.23;81.06;100822.81;1745479;82;21504;-42
2021/04/19 06:11:41;;;;;;;21.00;15.20;;;;;;;7.29;81.24;100819.40;1749410;81;21384;-41
2021/04/19 06:14:27;;;;;;;25.82;15.90;;;;;;;7.41;80.71;100821.13;1747673;82;21006;-42
2021/04/19 06:16:56;;;;;;;20.57;14.60;;;;;;;7.42;79.81;100815.95;1720487;82;20947;-42
2021/04/19 06:19:25;;;;;;;15.35;12.43;;;;;;;7.44;79.80;100814.68;1749512;81;21441;-42
2021/04/19 06:21:52;;;;;;;12.65;11.25;;;;;;;7.44;79.45;100812.95;1749455;82;20931;-42
2021/04/19 06:24:21;;;;;;;13.18;11.05;;;;;;;7.55;79.04;100808.25;1749405;82;21381;-43
2021/04/19 06:26:49;;;;;;;15.10;12.00;;;;;;;7.57;78.96;100807.81;1719991;80;21011;-41
2021/04/19 06:29:28;;;;;;;13.30;11.88;;;;;;;7.60;78.77;100811.67;1749461;80;21027;-43
2021/04/19 06:31:57;;;;;;;16.10;13.35;;;;;;;7.63;78.57;100810.37;1722520;82;20943;-42
2021/04/19 06:34:25;;;;;;;15.78;12.90;;;;;;;7.74;78.54;100808.67;1749454;82;21040;-42
2021/04/19 06:36:53;;;;;;;17.00;13.03;;;;;;;7.87;78.09;100808.64;1749389;81;21387;-42
2021/04/19 06:39:20;;;;;;;16.67;11.65;;;;;;;8.01;77.79;100807.32;1749362;82;20982;-42
2021/04/19 06:41:48;;;;;;;20.40;15.20;;;;;;;8.13;77.22;100798.28;1749372;82;21046;-42
2021/04/19 06:44:16;;;;;;;14.58;11.80;;;;;;;8.31;76.79;100802.94;1749341;82;20983;-42
2021/04/19 06:46:44;;;;;;;14.00;11.05;;;;;;;8.41;76.04;100809.80;1735595;82;21062;-41
2021/04/19 06:49:13;;;;;;;13.13;10.55;;;;;;;8.48;75.37;100810.64;1719569;83;21444;-40
2021/04/19 06:51:41;;;;;;;12.15;9.55;;;;;;;8.51;75.04;100807.20;1719472;83;21101;-41
2021/04/19 06:54:12;;;;;;;10.82;8.90;;;;;;;8.56;74.73;100812.77;1719667;83;21551;-40
2021/04/19 06:56:42;;;;;;;14.40;8.75;;;;;;;8.54;74.23;100800.73;1719572;83;21042;-42
2021/04/19 06:59:13;;;;;;;10.93;9.00;;;;;;;8.65;73.79;100805.43;1719562;83;21570;-42
2021/04/19 07:01:42;;;;;;;8.93;8.08;;;;;;;8.67;73.57;100801.11;1719484;83;21377;-41
2021/04/19 07:04:13;;;;;;;10.88;8.53;;;;;;;8.75;73.22;100805.80;1719713;83;21540;-40
2021/04/19 07:06:41;;;;;;;9.43;7.85;;;;;;;8.68;72.49;100811.86;1719337;83;21033;-41
2021/04/19 07:09:20;;;;;;;8.75;7.90;;;;;;;8.71;72.62;100813.13;1720276;83;21022;-42
2021/04/19 07:11:52;;;;;;;12.13;8.48;;;;;;;8.79;72.46;100807.94;1720299;83;21078;-41
2021/04/19 07:14:20;;;;;;;9.18;8.18;;;;;;;8.92;71.98;100804.85;1720277;83;21363;-42
2021/04/19 07:16:48;;;;;;;11.75;7.33;;;;;;;8.79;71.08;100809.23;1719755;83;21618;-43
2021/04/19 07:19:17;;;;;;;14.15;9.88;;;;;;;8.84;71.99;100810.05;1719829;83;21113;-43
2021/04/19 07:21:45;;;;;;;11.33;8.15;;;;;;;8.82;70.81;100810.50;1719850;83;21492;-42
2021/04/19 07:24:13;;;;;;;8.53;7.62;;;;;;;8.69;71.08;100810.99;1719826;83;21555;-41
2021/04/19 07:26:42;;;;;;;11.88;8.63;;;;;;;8.70;71.49;100807.97;1719804;83;21295;-43
2021/04/19 07:29:10;;;;;;;8.00;7.00;;;;;;;8.89;71.41;100817.78;1670993;83;21046;-44
2021/04/19 07:31:54;;;;;;;7.53;6.78;;;;;;;9.04;71.11;100811.66;1719752;83;21022;-43
2021/04/19 07:34:26;;;;;;;8.03;6.95;;;;;;;9.32;70.69;100802.43;1719850;83;21512;-41
2021/04/19 07:36:59;;;;;;;7.45;6.70;;;;;;;9.68;69.79;100804.72;1719187;83;21007;-41
2021/04/19 07:39:30;;;;;;;7.35;6.65;;;;;;;9.97;68.53;100805.70;1719749;83;21385;-42
2021/04/19 07:41:59;;;;;;;8.13;6.97;;;;;;;10.06;66.76;100799.59;1719606;83;21065;-42
2021/04/19 07:44:43;;;;;;;8.13;7.35;;;;;;;10.06;65.94;100803.05;1719745;83;20932;-42
2021/04/19 07:47:38;;;;;;;7.58;6.87;;;;;;;10.04;65.47;100799.63;1719773;82;21580;-41
2021/04/19 07:50:21;;;;;;;13.78;9.65;;;;;;;10.11;65.27;100799.13;1719784;83;20999;-42
2021/04/19 07:53:01;;;;;;;7.75;7.05;;;;;;;10.18;65.28;100797.30;1719849;83;22297;-43
2021/04/19 07:55:38;;;;;;;8.38;7.53;;;;;;;10.30;64.37;100797.59;1719627;83;21030;-42
2021/04/19 07:58:23;;;;;;;6.85;6.12;;;;;;;10.26;65.01;100795.92;1719731;83;21031;-41
2021/04/19 08:00:51;;;;;;;5.90;5.40;;;;;;;10.38;64.47;100792.34;1719774;83;21054;-41
2021/04/19 08:03:19;;;;;;;5.30;4.90;;;;;;;10.49;64.19;100793.11;1719774;83;21074;-41
2021/04/19 08:05:51;;;;;;;6.20;5.70;;;;;;;10.67;63.19;100788.55;1719610;83;21377;-40
2021/04/19 08:08:32;;;;;;;6.30;5.70;;;;;;;10.78;61.67;100799.63;1719685;82;21656;-43
2021/04/19 08:11:11;;;;;;;6.03;5.47;;;;;;;10.81;61.55;100791.81;1847556;76;22905;-41
2021/04/19 08:13:40;;;;;;;6.10;5.60;;;;;;;10.75;61.34;100798.38;1817857;77;21550;-42
2021/04/19 08:16:20;;;;;;;7.53;6.00;;;;;;;10.80;61.59;100791.40;1817903;79;22222;-43
2021/04/19 08:18:49;;;;;;;6.20;5.60;;;;;;;11.00;60.81;100785.92;1810647;79;20982;-42
2021/04/19 08:21:28;;;;;;;6.45;5.85;;;;;;;11.12;60.41;100787.47;1817690;78;20986;-42
2021/04/19 08:23:56;;;;;;;5.92;5.42;;;;;;;11.11;60.77;100781.88;1817445;79;20908;-42
2021/04/19 08:26:23;;;;;;;9.83;6.33;;;;;;;11.14;60.28;100781.83;1761317;79;20983;-41
2021/04/19 08:28:52;;;;;;;5.87;5.30;;;;;;;11.37;59.87;100785.78;1786532;79;21365;-40
2021/04/19 08:31:21;;;;;;;5.75;5.28;;;;;;;11.69;58.64;100787.42;1817688;79;20943;-42
2021/04/19 08:33:49;;;;;;;5.33;4.92;;;;;;;11.92;56.98;100779.20;1817808;79;20968;-43
2021/04/19 08:36:17;;;;;;;5.10;4.78;;;;;;;12.10;56.99;100776.72;1817701;78;20931;-42
2021/04/19 08:38:45;;;;;;;8.43;5.90;;;;;;;12.26;56.60;100772.11;1817768;78;21050;-43
2021/04/19 08:41:13;;;;;;;5.60;5.20;;;;;;;12.31;56.11;100778.48;1731275;77;21357;-42
2021/04/19 08:43:41;;;;;;;8.55;5.67;;;;;;;12.40;55.81;100771.82;1761290;79;21010;-42
2021/04/19 08:46:11;;;;;;;6.90;5.40;;;;;;;12.50;55.58;100764.23;1810733;79;21045;-42
2021/04/19 08:48:39;;;;;;;5.08;4.67;;;;;;;12.43;54.15;100757.91;1731851;80;20978;-41
2021/04/19 08:51:07;;;;;;;5.12;4.75;;;;;;;12.15;55.40;100768.43;1785509;80;20883;-41
2021/04/19 08:53:35;;;;;;;4.35;3.98;;;;;;;12.09;55.72;100762.50;1785536;80;21199;-43
2021/04/19 08:56:03;;;;;;;4.83;4.47;;;;;;;12.28;55.24;100768.17;1785462;80;21010;-43
2021/04/19 08:58:33;;;;;;;4.67;4.28;;;;;;;12.24;53.20;100772.55;1785462;80;20997;-41
2021/04/19 09:01:00;;;;;;;7.00;4.15;;;;;;;12.10;54.49;100770.23;1785539;80;21025;-41
2021/04/19 09:03:28;;;;;;;6.17;5.67;;;;;;;12.34;54.53;100774.52;1785522;80;20915;-43
2021/04/19 09:05:55;;;;;;;6.22;5.40;;;;;;;12.49;54.70;100772.05;1785549;80;21194;-43
2021/04/19 09:08:23;;;;;;;6.70;5.85;;;;;;;12.56;55.34;100769.75;1785454;80;21038;-41
2021/04/19 09:11:06;;;;;;;7.42;5.95;;;;;;;12.50;54.53;100768.56;1796742;79;21045;-41
2021/04/19 09:13:39;;;;;;;7.90;5.72;;;;;;;12.25;54.19;100768.23;1799990;79;21021;-43
2021/04/19 09:16:22;;;;;;;5.30;4.90;;;;;;;11.81;55.77;100772.08;1800304;79;21175;-42
2021/04/19 09:18:59;;;;;;;5.53;5.12;;;;;;;11.49;56.27;100775.23;1799950;79;21365;-43
2021/04/19 09:21:47;;;;;;;5.33;4.92;;;;;;;11.15;57.66;100771.88;1799764;79;21618;-42
2021/04/19 09:24:17;;;;;;;6.72;6.03;;;;;;;11.02;58.12;100770.38;1799427;79;20989;-43
2021/04/19 09:26:52;;;;;;;5.72;5.08;;;;;;;10.92;58.60;100773.53;1799469;79;20906;-42
2021/04/19 09:29:39;;;;;;;7.80;7.00;;;;;;;10.97;58.94;100775.61;1799440;79;20997;-41
2021/04/19 09:32:08;;;;;;;7.97;7.17;;;;;;;11.09;59.34;100770.69;1799773;79;21338;-44
2021/04/19 09:34:45;;;;;;;6.10;5.60;;;;;;;11.33;58.58;100778.95;1799429;79;21610;-42
2021/04/19 09:37:19;;;;;;;5.90;5.40;;;;;;;11.43;57.74;100774.02;1799554;79;21573;-41
2021/04/19 09:39:58;;;;;;;6.15;5.62;;;;;;;11.53;57.99;100781.66;1799008;79;21086;-42
2021/04/19 09:43:03;;;;;;;6.97;6.30;;;;;;;11.60;56.71;100784.55;1799462;79;20918;-42
2021/04/19 09:45:47;;;;;;;7.47;6.80;;;;;;;11.61;57.07;100775.42;1796848;79;21587;-43
2021/04/19 09:48:32;;;;;;;11.12;8.80;;;;;;;11.87;56.82;100771.95;1795446;79;20993;-43
2021/04/19 09:51:14;;;;;;;7.85;6.58;;;;;;;11.96;55.81;100774.37;1799370;79;21014;-42
2021/04/19 09:53:52;;;;;;;8.83;6.95;;;;;;;11.98;55.64;100780.38;1799455;79;21016;-41
2021/04/19 09:56:30;;;;;;;8.68;6.70;;;;;;;12.03;56.13;100776.44;1799463;79;21013;-42
2021/04/19 09:58:58;;;;;;;7.65;5.72;;;;;;;12.17;55.62;100781.36;1799056;78;21361;-43
2021/04/19 10:01:28;;;;;;;6.00;5.50;;;;;;;12.31;55.43;100778.48;1799397;79;21030;-42
2021/04/19 10:03:57;;;;;;;5.03;4.62;;;;;;;12.50;53.36;100767.27;1799536;79;21598;-42
2021/04/19 10:06:39;;;;;;;5.70;5.30;;;;;;;12.54;51.79;100765.47;1799415;79;20921;-42
2021/04/19 10:09:10;;;;;;;4.87;4.47;;;;;;;12.37;53.39;100778.34;1799508;79;20915;-42
2021/04/19 10:11:42;;;;;;;4.80;4.37;;;;;;;12.40;53.23;100771.82;1785435;79;21183;-41
2021/04/19 10:14:14;;;;;;;4.95;4.60;;;;;;;12.39;53.06;100765.35;1784817;79;20974;-41
2021/04/19 10:16:46;;;;;;;5.25;4.85;;;;;;;12.37;52.67;100770.56;1784905;80;20979;-43
2021/04/19 10:19:29;;;;;;;4.92;4.20;;;;;;;12.50;52.52;100775.05;1784930;80;20952;-43
2021/04/19 10:22:09;;;;;;;4.90;4.50;;;;;;;12.57;51.87;100775.78;1784967;80;21646;-42
2021/04/19 10:24:52;;;;;;;4.50;4.10;;;;;;;12.44;51.90;100777.36;1784950;80;21207;-42
2021/04/19 10:27:28;;;;;;;4.70;4.30;;;;;;;12.30;51.80;100774.18;1784809;79;21010;-42
2021/04/19 10:30:14;;;;;;;4.90;4.17;;;;;;;12.28;52.21;100779.42;1781234;80;20903;-42
2021/04/19 10:32:43;;;;;;;4.15;3.90;;;;;;;12.51;51.81;100770.30;1785127;80;21537;-43
2021/04/19 10:35:33;;;;;;;4.40;4.00;;;;;;;12.92;50.45;100772.86;1784962;80;21470;-43
2021/04/19 10:38:03;;;;;;;5.50;3.83;;;;;;;13.26;50.17;100776.37;1782453;80;21362;-41
2021/04/19 10:40:31;;;;;;;5.08;3.95;;;;;;;13.30;49.59;100768.93;1784778;80;21022;-41
2021/04/19 10:43:12;;;;;;;3.98;3.77;;;;;;;13.14;48.82;100760.20;1784869;80;21010;-44
2021/04/19 10:45:41;;;;;;;4.20;3.90;;;;;;;12.70;49.34;100766.84;1784850;80;21002;-42
2021/04/19 10:48:27;;;;;;;4.45;4.15;;;;;;;12.57;50.57;100767.56;1784992;80;21487;-42
2021/04/19 10:50:59;;;;;;;4.42;4.05;;;;;;;12.90;50.41;100765.09;1785177;79;22326;-42
2021/04/19 10:53:37;;;;;;;9.13;4.45;;;;;;;13.25;48.91;100763.84;1784854;80;21155;-41
2021/04/19 10:56:08;;;;;;;4.50;4.12;;;;;;;13.16;49.44;100766.21;1784836;80;21010;-42
2021/04/19 10:58:38;;;;;;;5.08;4.10;;;;;;;13.10;49.05;100758.57;1784844;80;20938;-43
2021/04/19 11:01:08;;;;;;;4.05;3.77;;;;;;;13.01;48.00;100763.97;1784906;80;20915;-43
2021/04/19 11:03:36;;;;;;;4.33;3.65;;;;;;;12.65;49.21;100765.64;1784866;80;21197;-42
2021/04/19 11:06:10;;;;;;;4.10;3.80;;;;;;;12.62;48.80;100764.84;1784836;79;20954;-41
2021/04/19 11:09:00;;;;;;;3.72;3.52;;;;;;;12.84;48.43;100764.36;1784981;80;21494;-43
2021/04/19 11:11:42;;;;;;;4.42;4.12;;;;;;;13.13;47.12;100758.49;1784724;79;21006;-41
2021/04/19 11:14:29;;;;;;;3.75;3.55;;;;;;;13.23;47.03;100758.66;1784429;80;21186;-42
2021/04/19 11:17:05;;;;;;;4.12;3.87;;;;;;;13.53;47.11;100756.67;1755099;80;21148;-42
2021/04/19 11:19:41;;;;;;;4.60;3.65;;;;;;;14.00;46.23;100749.77;1784801;79;21069;-43
2021/04/19 11:22:33;;;;;;;4.30;4.00;;;;;;;14.36;45.80;100742.23;1784913;79;21014;-44
2021/04/19 11:25:25;;;;;;;4.78;4.47;;;;;;;14.66;44.64;100745.67;1782949;79;21006;-43
2021/04/19 11:28:14;;;;;;;4.53;4.22;;;;;;;14.84;44.46;100741.27;1784894;80;21562;-43
2021/04/19 11:30:42;;;;;;;5.10;4.70;;;;;;;14.89;43.92;100741.97;1784772;80;21137;-40
2021/04/19 11:33:26;;;;;;;4.92;4.53;;;;;;;14.78;43.56;100751.45;1784806;80;20911;-44
2021/04/19 11:36:03;;;;;;;4.30;4.00;;;;;;;14.62;43.33;100747.98;1784939;80;20899;-44
2021/04/19 11:38:31;;;;;;;4.55;4.15;;;;;;;14.83;43.84;100739.13;1784836;79;20999;-41
2021/04/19 11:41:01;;;;;;;3.83;3.62;;;;;;;14.70;44.12;100736.45;1784876;80;21013;-42
2021/04/19 11:43:32;;;;;;;4.60;4.20;;;;;;;14.71;43.60;100739.06;1784934;80;22231;-42
2021/04/19 11:46:08;;;;;;;7.53;3.90;;;;;;;15.06;44.60;100738.84;1784703;79;21021;-43
2021/04/19 11:48:39;;;;;;;4.22;3.92;;;;;;;15.43;43.98;100732.37;1784962;80;20939;-43
2021/04/19 11:51:08;;;;;;;4.30;4.00;;;;;;;15.69;42.44;100733.22;1784812;79;20935;-43
2021/04/19 11:53:39;;;;;;;4.58;4.17;;;;;;;15.69;42.13;100731.92;1784924;79;21037;-42